createdAt,value
2023-04-06T00:00:37.818Z,99.90
2023-04-06T00:03:05.997Z,99.90
2023-04-06T00:05:34.166Z,99.90
2023-04-06T00:08:02.670Z,99.90
2023-04-06T00:10:30.749Z,99.90
2023-04-06T00:12:59.626Z,99.90
2023-04-06T00:15:28.381Z,99.90
2023-04-06T00:17:57.861Z,99.90
2023-04-06T00:20:26.632Z,99.90
2023-04-06T00:22:54.653Z,99.90
2023-04-06T00:25:22.740Z,99.90
2023-04-06T00:27:50.764Z,99.90
2023-04-06T00:30:18.805Z,99.90
2023-04-06T00:32:47.050Z,99.90
2023-04-06T00:35:15.220Z,99.90
2023-04-06T00:37:43.324Z,99.90
2023-04-06T00:40:11.714Z,99.90
2023-04-06T00:42:39.788Z,99.90
2023-04-06T00:45:08.047Z,99.90
2023-04-06T00:47:36.218Z,99.90
2023-04-06T00:50:04.459Z,99.90
2023-04-06T00:52:32.582Z,99.90
2023-04-06T00:55:00.705Z,99.90
2023-04-06T00:57:29.652Z,99.90
2023-04-06T00:59:58.224Z,99.90
2023-04-06T01:02:27.542Z,99.90
2023-04-06T02:39:23.030Z,99.90
2023-04-06T02:41:52.369Z,99.90
2023-04-06T02:44:24.262Z,99.90
2023-04-06T02:46:53.172Z,99.90
2023-04-06T02:49:23.286Z,99.90
2023-04-06T02:51:56.243Z,99.90
2023-04-06T02:54:28.649Z,99.90
2023-04-06T02:56:56.765Z,99.90
2023-04-06T02:59:31.293Z,99.90
2023-04-06T03:02:08.088Z,99.90
2023-04-06T03:04:37.332Z,99.90
2023-04-06T03:07:08.853Z,99.90
2023-04-06T03:09:40.448Z,99.90
2023-04-06T03:12:10.156Z,99.90
2023-04-06T03:14:58.449Z,99.90
2023-04-06T03:17:27.413Z,99.90
2023-04-06T03:19:58.633Z,99.90
2023-04-06T03:22:26.981Z,99.90
2023-04-06T03:24:55.458Z,99.90
2023-04-06T03:27:23.566Z,99.90
2023-04-06T03:29:52.040Z,99.90
2023-04-06T03:32:27.569Z,99.90
2023-04-06T03:34:55.706Z,99.90
2023-04-06T03:37:23.808Z,99.90
2023-04-06T03:39:55.683Z,99.90
2023-04-06T03:42:26.567Z,99.90
2023-04-06T03:44:59.725Z,99.90
2023-04-06T03:47:28.056Z,99.90
2023-04-06T03:50:00.646Z,99.90
2023-04-06T03:52:28.889Z,99.90
2023-04-06T03:54:57.189Z,99.90
2023-04-06T03:57:25.242Z,99.90
2023-04-06T03:59:53.292Z,99.90
2023-04-06T04:02:22.279Z,99.90
2023-04-06T04:04:52.098Z,99.90
2023-04-06T04:07:20.208Z,99.90
2023-04-06T04:09:48.274Z,99.90
2023-04-06T04:12:17.678Z,99.90
2023-04-06T04:14:48.466Z,99.90
2023-04-06T04:17:16.647Z,99.90
2023-04-06T04:19:47.747Z,99.90
2023-04-06T04:22:17.888Z,99.90
2023-04-06T04:24:46.077Z,99.90
2023-04-06T04:27:14.105Z,99.90
2023-04-06T04:29:43.187Z,99.90
2023-04-06T04:32:13.604Z,99.90
2023-04-06T04:34:42.569Z,99.90
2023-04-06T04:37:17.668Z,99.90
2023-04-06T04:39:57.734Z,99.90
2023-04-06T04:42:26.035Z,99.90
2023-04-06T04:44:57.100Z,99.90
2023-04-06T04:47:43.995Z,99.90
2023-04-06T04:50:14.320Z,99.90
2023-04-06T04:52:45.881Z,99.90
2023-04-06T04:55:34.124Z,99.90
2023-04-06T04:58:04.684Z,99.90
2023-04-06T05:00:49.573Z,99.90
2023-04-06T05:03:22.910Z,99.90
2023-04-06T05:05:58.384Z,99.90
2023-04-06T05:08:29.954Z,99.90
2023-04-06T05:10:58.853Z,99.90
2023-04-06T05:13:28.110Z,99.90
2023-04-06T05:15:57.818Z,99.90
2023-04-06T05:18:30.052Z,99.90
2023-04-06T05:21:01.799Z,99.90
2023-04-06T05:23:50.340Z,99.90
2023-04-06T05:26:18.623Z,99.90
2023-04-06T05:28:47.820Z,99.90
2023-04-06T05:31:17.098Z,99.90
2023-04-06T05:33:49.967Z,99.90
2023-04-06T05:36:25.958Z,99.90
2023-04-06T05:38:55.089Z,99.90
2023-04-06T05:41:51.285Z,99.90
2023-04-06T05:44:29.433Z,99.90
2023-04-06T05:47:06.597Z,99.90
2023-04-06T05:49:35.106Z,99.90
2023-04-06T05:52:04.333Z,99.90
2023-04-06T05:54:33.851Z,99.90
2023-04-06T05:57:06.742Z,99.90
2023-04-06T05:59:35.002Z,99.90
2023-04-06T06:02:03.877Z,99.90
2023-04-06T06:04:35.115Z,99.90
2023-04-06T06:07:03.751Z,99.90
2023-04-06T06:09:43.900Z,99.90
2023-04-06T06:12:21.234Z,99.90
2023-04-06T06:14:53.913Z,99.90
2023-04-06T06:17:25.354Z,99.90
2023-04-06T06:19:53.540Z,99.90
2023-04-06T06:22:22.256Z,99.90
2023-04-06T06:24:52.814Z,99.90
2023-04-06T06:27:22.641Z,99.90
2023-04-06T06:29:50.946Z,99.90
2023-04-06T06:32:20.113Z,99.90
2023-04-06T06:34:52.373Z,99.90
2023-04-06T06:37:21.115Z,99.90
2023-04-06T06:39:50.472Z,99.90
2023-04-06T06:42:20.409Z,99.90
2023-04-06T06:45:14.584Z,99.90
2023-04-06T06:47:43.748Z,99.90
2023-04-06T06:50:13.200Z,99.90
2023-04-06T06:52:42.169Z,99.90
2023-04-06T06:55:11.111Z,99.90
2023-04-06T06:57:40.896Z,99.90
2023-04-06T07:00:16.490Z,99.90
2023-04-06T07:02:46.553Z,99.90
2023-04-06T07:05:26.988Z,99.90
2023-04-06T07:07:58.345Z,99.90
2023-04-06T07:10:28.211Z,99.90
2023-04-06T07:12:57.355Z,99.90
2023-04-06T07:15:25.661Z,99.90
2023-04-06T07:17:54.667Z,99.90
2023-04-06T07:20:23.146Z,99.90
2023-04-06T07:22:51.312Z,99.90
2023-04-06T07:25:19.578Z,99.90
2023-04-06T07:27:47.839Z,99.90
2023-04-06T07:30:17.357Z,99.90
2023-04-06T07:32:45.616Z,99.90
2023-04-06T07:35:13.754Z,99.90
2023-04-06T07:37:44.711Z,99.90
2023-04-06T07:40:13.263Z,99.90
2023-04-06T07:42:43.304Z,99.90
2023-04-06T07:45:17.100Z,99.90
2023-04-06T07:47:45.540Z,99.90
2023-04-06T07:50:13.929Z,99.90
2023-04-06T07:52:42.715Z,99.90
2023-04-06T07:55:11.392Z,99.90
2023-04-06T07:57:39.554Z,99.90
2023-04-06T08:00:08.014Z,99.40
2023-04-06T08:02:56.128Z,95.30
2023-04-06T08:05:24.322Z,96.00
2023-04-06T08:07:52.494Z,95.60
2023-04-06T08:10:20.639Z,94.00
2023-04-06T08:12:48.744Z,94.70
2023-04-06T08:15:17.279Z,94.20
2023-04-06T08:17:45.477Z,93.90
2023-04-06T08:20:13.857Z,92.70
2023-04-06T08:22:42.348Z,92.60
2023-04-06T08:25:14.048Z,92.60
2023-04-06T08:27:43.239Z,92.80
2023-04-06T08:30:11.863Z,92.50
2023-04-06T08:32:40.134Z,91.70
2023-04-06T08:35:09.196Z,91.90
2023-04-06T08:37:37.410Z,91.00
2023-04-06T08:40:05.825Z,90.60
2023-04-06T08:42:41.535Z,89.00
2023-04-06T08:45:12.285Z,91.00
2023-04-06T08:47:43.545Z,89.70
2023-04-06T08:50:15.210Z,89.40
2023-04-06T08:52:45.428Z,89.10
2023-04-06T08:55:13.631Z,88.50
2023-04-06T08:57:42.482Z,87.00
2023-04-06T09:00:12.248Z,84.90
2023-04-06T09:02:41.507Z,86.10
2023-04-06T09:05:10.339Z,85.70
2023-04-06T09:07:38.798Z,84.80
2023-04-06T09:10:07.999Z,83.70
2023-04-06T09:12:36.807Z,84.20
2023-04-06T09:15:05.603Z,84.00
2023-04-06T09:17:35.778Z,82.30
2023-04-06T09:20:05.490Z,81.50
2023-04-06T09:22:37.794Z,85.60
2023-04-06T09:25:06.257Z,83.10
2023-04-06T09:27:38.410Z,85.50
2023-04-06T09:30:07.515Z,82.90
2023-04-06T09:32:47.219Z,86.40
2023-04-06T09:35:15.638Z,82.70
2023-04-06T09:37:46.965Z,83.90
2023-04-06T09:40:15.881Z,82.80
2023-04-06T09:42:44.476Z,83.60
2023-04-06T09:45:16.739Z,86.30
2023-04-06T09:47:49.249Z,83.80
2023-04-06T09:50:18.584Z,79.90
2023-04-06T09:52:51.840Z,78.40
2023-04-06T09:55:26.297Z,74.70
2023-04-06T09:58:06.095Z,75.00
2023-04-06T10:00:35.370Z,78.20
2023-04-06T10:03:09.931Z,77.50
2023-04-06T10:05:47.438Z,76.50
2023-04-06T10:08:16.175Z,76.80
2023-04-06T10:10:44.914Z,76.10
2023-04-06T10:13:13.803Z,75.40
2023-04-06T10:15:44.930Z,76.30
2023-04-06T10:18:13.105Z,78.70
2023-04-06T10:20:43.251Z,75.80
2023-04-06T10:23:20.282Z,77.00
2023-04-06T10:25:55.906Z,75.30
2023-04-06T10:28:24.333Z,72.60
2023-04-06T10:30:58.782Z,75.30
2023-04-06T10:33:27.166Z,71.00
2023-04-06T10:35:55.310Z,74.30
2023-04-06T10:38:24.358Z,74.70
2023-04-06T10:40:52.484Z,74.50
2023-04-06T10:43:24.791Z,72.70
2023-04-06T10:45:59.980Z,74.00
2023-04-06T10:48:38.189Z,73.90
2023-04-06T10:51:09.656Z,72.30
2023-04-06T10:53:37.725Z,76.40
2023-04-06T10:56:06.367Z,76.00
2023-04-06T10:58:34.542Z,72.90
2023-04-06T11:01:02.827Z,73.00
2023-04-06T11:03:31.514Z,73.40
2023-04-06T11:05:59.573Z,71.80
2023-04-06T11:08:29.959Z,71.10
2023-04-06T11:11:18.333Z,71.00
2023-04-06T11:13:47.648Z,70.90
2023-04-06T11:16:17.100Z,72.30
2023-04-06T11:19:01.969Z,70.00
2023-04-06T11:21:41.588Z,72.10
2023-04-06T11:24:17.547Z,73.40
2023-04-06T11:26:48.299Z,72.90
2023-04-06T11:29:20.662Z,71.40
2023-04-06T11:31:49.934Z,74.10
2023-04-06T11:34:21.623Z,70.40
2023-04-06T11:37:00.201Z,75.10
2023-04-06T11:39:29.370Z,70.40
2023-04-06T11:42:06.848Z,70.20
2023-04-06T11:44:42.318Z,70.30
2023-04-06T11:47:11.151Z,71.80
2023-04-06T11:49:39.876Z,67.80
2023-04-06T11:52:21.429Z,68.40
2023-04-06T11:54:50.444Z,69.40
2023-04-06T11:57:19.028Z,67.60
2023-04-06T11:59:47.381Z,73.30
2023-04-06T12:02:15.542Z,68.30
2023-04-06T12:04:43.737Z,67.30
2023-04-06T12:07:12.150Z,67.40
2023-04-06T12:09:41.144Z,68.80
2023-04-06T12:12:09.297Z,70.00
2023-04-06T12:14:37.507Z,67.20
2023-04-06T12:17:05.688Z,68.10
2023-04-06T12:19:33.922Z,67.00
2023-04-06T12:22:04.382Z,67.80
2023-04-06T12:24:37.276Z,71.20
2023-04-06T12:27:10.200Z,71.70
2023-04-06T12:29:39.685Z,68.40
2023-04-06T12:32:08.439Z,66.80
2023-04-06T12:34:37.104Z,68.20
2023-04-06T12:37:05.254Z,71.30
2023-04-06T12:39:33.846Z,67.10
2023-04-06T12:42:01.916Z,66.20
2023-04-06T12:44:30.022Z,74.30
2023-04-06T12:46:58.561Z,69.40
2023-04-06T12:49:26.831Z,68.60
2023-04-06T12:51:54.923Z,66.40
2023-04-06T12:54:23.009Z,65.60
2023-04-06T12:56:51.167Z,63.70
2023-04-06T12:59:19.375Z,67.80
2023-04-06T13:01:47.752Z,69.80
2023-04-06T13:04:15.800Z,66.70
2023-04-06T13:06:44.082Z,67.70
2023-04-06T13:09:12.214Z,67.90
2023-04-06T13:11:41.218Z,68.70
2023-04-06T13:14:09.281Z,69.20
2023-04-06T13:16:38.680Z,65.70
2023-04-06T13:19:06.872Z,65.80
2023-04-06T13:21:35.665Z,64.90
2023-04-06T13:24:03.729Z,64.60
2023-04-06T13:26:32.018Z,64.40
2023-04-06T13:29:01.814Z,67.40
2023-04-06T13:31:29.968Z,66.50
2023-04-06T13:33:58.094Z,70.70
2023-04-06T13:36:26.353Z,69.00
2023-04-06T13:38:54.683Z,67.70
2023-04-06T13:41:23.452Z,65.30
2023-04-06T13:43:53.119Z,64.60
2023-04-06T13:46:21.647Z,66.70
2023-04-06T13:48:50.383Z,67.40
2023-04-06T13:51:18.632Z,66.60
2023-04-06T13:53:46.787Z,65.20
2023-04-06T13:56:14.860Z,62.10
2023-04-06T13:58:43.094Z,62.20
2023-04-06T14:01:11.988Z,61.00
2023-04-06T14:03:41.660Z,60.90
2023-04-06T14:06:27.484Z,62.30
2023-04-06T14:08:59.304Z,64.20
2023-04-06T14:11:27.566Z,63.60
2023-04-06T14:14:47.013Z,65.00
2023-04-06T14:17:18.199Z,65.80
2023-04-06T14:19:47.748Z,63.90
2023-04-06T14:22:15.835Z,64.10
2023-04-06T14:24:44.858Z,62.30
2023-04-06T14:27:18.006Z,61.60
2023-04-06T14:29:48.891Z,64.20
2023-04-06T14:32:20.357Z,68.80
2023-04-06T14:34:52.399Z,63.20
2023-04-06T14:37:20.867Z,64.40
2023-04-06T14:39:48.865Z,64.00
2023-04-06T14:42:17.014Z,61.90
2023-04-06T14:44:47.439Z,64.10
2023-04-06T14:47:17.888Z,63.20
2023-04-06T14:49:45.927Z,65.80
2023-04-06T14:52:13.930Z,64.50
2023-04-06T14:54:42.216Z,64.40
2023-04-06T14:57:10.321Z,65.10
2023-04-06T14:59:40.135Z,64.30
2023-04-06T15:02:08.737Z,65.60
2023-04-06T15:04:43.186Z,67.50
2023-04-06T15:07:26.293Z,67.70
2023-04-06T15:10:03.356Z,68.80
2023-04-06T15:12:37.641Z,69.80
2023-04-06T15:15:15.642Z,66.90
2023-04-06T15:17:53.122Z,68.60
2023-04-06T15:20:25.168Z,66.90
2023-04-06T15:22:58.258Z,68.70
2023-04-06T15:25:37.595Z,65.90
2023-04-06T15:28:24.551Z,66.60
2023-04-06T15:30:56.252Z,65.20
2023-04-06T15:33:37.858Z,67.30
2023-04-06T15:36:14.703Z,66.50
2023-04-06T15:38:47.120Z,68.90
2023-04-06T15:41:24.748Z,67.80
2023-04-06T15:43:54.645Z,68.00
2023-04-06T15:46:25.565Z,69.70
2023-04-06T15:48:56.577Z,69.50
2023-04-06T15:51:25.716Z,70.00
2023-04-06T15:53:53.737Z,69.90
2023-04-06T15:56:22.342Z,67.50
2023-04-06T15:58:51.818Z,68.20
2023-04-06T16:01:23.028Z,68.30
2023-04-06T16:03:51.672Z,67.40
2023-04-06T16:06:19.793Z,68.50
2023-04-06T16:08:48.310Z,68.10
2023-04-06T16:11:17.456Z,68.10
2023-04-06T16:13:54.696Z,67.60
2023-04-06T16:16:24.378Z,69.60
2023-04-06T16:18:53.799Z,68.60
2023-04-06T16:21:21.926Z,67.60
2023-04-06T16:23:50.064Z,67.60
2023-04-06T16:26:21.126Z,69.60
2023-04-06T16:28:51.735Z,71.20
2023-04-06T16:31:23.880Z,70.70
2023-04-06T16:33:53.681Z,70.30
2023-04-06T16:36:32.350Z,71.30
2023-04-06T16:39:03.057Z,71.10
2023-04-06T16:41:31.174Z,69.70
2023-04-06T16:43:59.381Z,70.30
2023-04-06T16:46:36.209Z,70.40
2023-04-06T16:49:11.604Z,72.40
2023-04-06T16:51:43.499Z,70.90
2023-04-06T16:54:11.750Z,70.40
2023-04-06T16:56:42.381Z,70.50
2023-04-06T16:59:10.453Z,70.00
2023-04-06T17:01:38.636Z,72.70
2023-04-06T17:04:07.415Z,71.60
2023-04-06T17:06:35.598Z,72.10
2023-04-06T17:09:03.922Z,73.10
2023-04-06T17:11:43.604Z,73.00
2023-04-06T17:14:14.489Z,72.80
2023-04-06T17:16:42.604Z,71.70
2023-04-06T17:19:10.668Z,73.90
2023-04-06T17:21:40.305Z,74.10
2023-04-06T17:24:09.178Z,75.10
2023-04-06T17:26:37.426Z,77.00
2023-04-06T17:29:05.850Z,79.00
2023-04-06T17:31:33.985Z,80.70
2023-04-06T17:34:02.125Z,81.30
2023-04-06T17:36:30.600Z,83.50
2023-04-06T17:38:58.725Z,85.60
2023-04-06T17:41:27.899Z,85.80
2023-04-06T17:43:55.932Z,87.40
2023-04-06T17:46:24.059Z,89.80
2023-04-06T17:48:53.279Z,90.50
2023-04-06T17:51:22.056Z,91.00
2023-04-06T17:53:50.277Z,91.90
2023-04-06T17:56:18.395Z,92.30
2023-04-06T17:58:46.895Z,92.40
2023-04-06T18:01:16.143Z,93.20
2023-04-06T18:03:44.291Z,93.60
2023-04-06T18:06:16.165Z,94.80
2023-04-06T18:08:47.401Z,95.70
2023-04-06T18:11:18.724Z,95.70
2023-04-06T18:13:47.062Z,96.60
2023-04-06T18:16:15.354Z,97.20
2023-04-06T18:18:43.476Z,98.10
2023-04-06T18:21:11.618Z,98.80
2023-04-06T18:23:39.702Z,99.90
2023-04-06T18:26:08.286Z,99.90
2023-04-06T18:28:36.436Z,99.90
2023-04-06T18:31:04.604Z,99.90
2023-04-06T18:33:33.760Z,99.90
2023-04-06T18:36:01.959Z,99.90
2023-04-06T18:38:29.993Z,99.90
2023-04-06T18:40:58.132Z,99.90
2023-04-06T18:43:26.734Z,99.90
2023-04-06T18:45:54.830Z,99.90
2023-04-06T18:48:22.992Z,99.90
2023-04-06T18:50:54.888Z,99.90
2023-04-06T18:53:23.237Z,99.90
2023-04-06T18:55:52.362Z,99.90
2023-04-06T18:58:20.727Z,99.90
2023-04-06T19:00:48.787Z,99.90
2023-04-06T19:03:18.044Z,99.90
2023-04-06T19:05:47.528Z,99.90
2023-04-06T19:08:16.242Z,99.90
2023-04-06T19:10:45.210Z,99.90
2023-04-06T19:13:13.277Z,99.90
2023-04-06T19:15:43.192Z,99.90
2023-04-06T19:18:11.664Z,99.90
2023-04-06T19:20:39.734Z,99.90
2023-04-06T19:23:07.907Z,99.90
2023-04-06T19:25:36.036Z,99.90
2023-04-06T19:28:04.120Z,99.90
2023-04-06T19:30:32.251Z,99.90
2023-04-06T19:33:00.321Z,99.90
2023-04-06T19:35:28.420Z,99.90
2023-04-06T19:37:56.584Z,99.90
2023-04-06T19:40:24.604Z,99.90
2023-04-06T19:42:52.742Z,99.90
2023-04-06T19:45:20.846Z,99.90
2023-04-06T19:47:48.982Z,99.90
2023-04-06T19:50:17.166Z,99.90
2023-04-06T19:52:45.264Z,99.90
2023-04-06T19:55:13.305Z,99.90
2023-04-06T19:57:41.405Z,99.90
2023-04-06T20:00:10.485Z,99.90
2023-04-06T20:02:38.775Z,99.90
2023-04-06T20:05:10.094Z,99.90
2023-04-06T20:07:41.584Z,99.90
2023-04-06T20:10:09.849Z,99.90
2023-04-06T20:12:38.141Z,99.90
2023-04-06T20:15:06.364Z,99.90
2023-04-06T20:17:34.716Z,99.90
2023-04-06T20:20:02.887Z,99.90
2023-04-06T20:22:30.914Z,99.90
2023-04-06T20:24:59.008Z,99.90
2023-04-06T20:27:27.374Z,99.90
2023-04-06T20:29:55.504Z,99.90
2023-04-06T20:32:23.654Z,99.90
2023-04-06T20:34:52.104Z,99.90
2023-04-06T20:37:21.970Z,99.90
2023-04-06T20:39:50.118Z,99.90
2023-04-06T20:42:18.427Z,99.90
2023-04-06T20:44:46.604Z,99.90
2023-04-06T20:47:14.637Z,99.90
2023-04-06T20:49:42.827Z,99.90
2023-04-06T20:52:10.954Z,99.90
2023-04-06T20:54:39.003Z,99.90
2023-04-06T20:57:07.168Z,99.90
2023-04-06T20:59:35.336Z,99.90
2023-04-06T21:02:03.504Z,99.90
2023-04-06T21:04:31.636Z,99.90
2023-04-06T21:06:59.885Z,99.90
2023-04-06T21:09:29.272Z,99.90
2023-04-06T21:11:57.407Z,99.90
2023-04-06T21:14:25.670Z,99.90
2023-04-06T21:16:54.822Z,99.90
2023-04-06T21:19:26.084Z,99.90
2023-04-06T21:21:54.369Z,99.90
2023-04-06T21:24:22.411Z,99.90
2023-04-06T21:26:50.527Z,99.90
2023-04-06T21:29:18.507Z,99.90
2023-04-06T21:31:46.604Z,99.90
2023-04-06T21:34:15.533Z,99.90
2023-04-06T21:36:43.883Z,99.90
2023-04-06T21:39:12.152Z,99.90
2023-04-06T21:41:41.944Z,99.90
2023-04-06T21:44:10.055Z,99.90
2023-04-06T21:46:38.399Z,99.90
2023-04-06T21:49:06.447Z,99.90
2023-04-06T21:51:34.471Z,99.90
2023-04-06T21:54:03.262Z,99.90
2023-04-06T21:56:31.444Z,99.90
2023-04-06T21:58:59.540Z,99.90
2023-04-06T22:01:28.260Z,99.90
2023-04-06T22:03:59.324Z,99.90
2023-04-06T22:06:30.307Z,99.90
2023-04-06T22:08:59.469Z,99.90
2023-04-06T22:11:27.740Z,99.90
2023-04-06T22:13:55.836Z,99.90
2023-04-06T22:16:23.982Z,99.90
2023-04-06T22:18:52.107Z,99.90
2023-04-06T22:21:20.369Z,99.90
2023-04-06T22:23:48.524Z,99.90
2023-04-06T22:26:16.789Z,99.90
2023-04-06T22:28:44.859Z,99.90
2023-04-06T22:31:13.007Z,99.90
2023-04-06T22:33:41.031Z,99.90
2023-04-06T22:36:09.233Z,99.90
2023-04-06T22:38:37.306Z,99.90
2023-04-06T22:41:07.188Z,99.90
2023-04-06T22:43:36.457Z,99.90
2023-04-06T22:46:04.674Z,99.90
2023-04-06T22:48:32.705Z,99.90
2023-04-06T22:51:00.825Z,99.90
2023-04-06T22:53:28.931Z,99.90
2023-04-06T22:55:57.344Z,99.90
2023-04-06T22:58:25.497Z,99.90
2023-04-06T23:00:53.600Z,99.90
2023-04-06T23:03:21.986Z,99.90
2023-04-06T23:05:50.199Z,99.90
2023-04-06T23:08:18.316Z,99.90
2023-04-06T23:10:46.452Z,99.90
2023-04-06T23:13:14.787Z,99.90
2023-04-06T23:15:43.108Z,99.90
2023-04-06T23:18:11.260Z,99.90
2023-04-06T23:20:40.492Z,99.90
2023-04-06T23:23:09.099Z,99.90
2023-04-06T23:25:37.498Z,99.90
2023-04-06T23:28:06.825Z,99.90
2023-04-06T23:30:35.467Z,99.90
2023-04-06T23:33:03.842Z,99.90
2023-04-06T23:35:32.618Z,99.90
2023-04-06T23:38:00.833Z,99.90
2023-04-06T23:40:29.167Z,99.90
2023-04-06T23:42:57.696Z,99.90
2023-04-06T23:45:26.131Z,99.90
2023-04-06T23:47:54.360Z,99.90
2023-04-06T23:50:22.640Z,99.90
2023-04-06T23:52:50.870Z,99.90
2023-04-06T23:55:19.108Z,99.90
2023-04-06T23:57:47.291Z,99.90
